createdAt,value
2022-08-23T00:02:23.716Z,3.95
2022-08-23T00:05:00.560Z,5.70
2022-08-23T00:07:38.746Z,4.78
2022-08-23T00:10:08.979Z,4.53
2022-08-23T00:12:53.648Z,3.47
2022-08-23T00:15:21.241Z,4.55
2022-08-23T00:17:48.070Z,4.68
2022-08-23T00:20:19.001Z,5.13
2022-08-23T00:22:45.964Z,5.88
2022-08-23T00:25:14.465Z,4.80
2022-08-23T00:27:41.287Z,4.43
2022-08-23T00:30:12.708Z,4.38
2022-08-23T00:32:41.449Z,4.55
2022-08-23T00:35:11.362Z,4.57
2022-08-23T00:37:38.643Z,5.10
2022-08-23T00:40:14.125Z,4.30
2022-08-23T00:43:18.963Z,4.38
2022-08-23T00:46:32.252Z,4.65
2022-08-23T00:49:04.276Z,5.32
2022-08-23T00:51:52.713Z,5.00
2022-08-23T00:54:24.480Z,5.05
2022-08-23T00:56:52.412Z,4.78
2022-08-23T00:59:19.441Z,4.93
2022-08-23T01:01:46.113Z,5.50
2022-08-23T01:04:14.132Z,4.90
2022-08-23T01:07:08.766Z,4.70
2022-08-23T01:09:39.555Z,5.40
2022-08-23T01:12:16.378Z,6.00
2022-08-23T01:15:00.102Z,5.97
2022-08-23T01:17:36.776Z,6.40
2022-08-23T01:20:11.012Z,6.35
2022-08-23T01:22:58.913Z,6.10
2022-08-23T01:25:30.842Z,6.07
2022-08-23T01:27:57.845Z,4.78
2022-08-23T01:30:31.427Z,5.35
2022-08-23T01:33:03.439Z,5.25
2022-08-23T01:35:48.019Z,5.78
2022-08-23T01:38:15.509Z,5.20
2022-08-23T01:40:43.174Z,4.95
2022-08-23T01:43:10.291Z,6.47
2022-08-23T01:45:37.492Z,7.85
2022-08-23T01:48:06.793Z,6.97
2022-08-23T01:50:34.482Z,6.70
2022-08-23T01:53:01.511Z,6.20
2022-08-23T01:55:28.464Z,5.85
2022-08-23T01:58:00.163Z,5.22
2022-08-23T02:00:35.562Z,5.18
2022-08-23T02:03:03.594Z,5.00
2022-08-23T02:05:30.696Z,5.40
2022-08-23T02:08:18.213Z,5.60
2022-08-23T02:10:44.959Z,5.70
2022-08-23T02:13:12.360Z,5.00
2022-08-23T02:15:46.942Z,7.50
2022-08-23T02:18:13.946Z,5.38
2022-08-23T02:20:49.227Z,5.88
2022-08-23T02:23:17.560Z,5.95
2022-08-23T02:25:44.349Z,5.90
2022-08-23T02:28:11.628Z,6.07
2022-08-23T02:30:39.970Z,8.55
2022-08-23T02:33:07.145Z,7.88
2022-08-23T02:35:33.917Z,6.85
2022-08-23T02:38:10.192Z,5.90
2022-08-23T02:40:37.956Z,4.80
2022-08-23T02:43:06.635Z,5.75
2022-08-23T02:45:33.799Z,5.88
2022-08-23T02:48:01.620Z,6.40
2022-08-23T02:50:28.770Z,5.75
2022-08-23T02:52:57.832Z,5.80
2022-08-23T02:55:24.626Z,6.28
2022-08-23T02:57:51.617Z,7.03
2022-08-23T03:00:19.765Z,6.97
2022-08-23T03:02:46.721Z,7.32
2022-08-23T03:05:15.736Z,6.35
2022-08-23T03:07:44.235Z,6.93
2022-08-23T03:10:12.947Z,7.13
2022-08-23T03:12:42.071Z,6.55
2022-08-23T03:15:09.382Z,7.05
2022-08-23T03:17:36.151Z,7.50
2022-08-23T03:20:04.029Z,7.03
2022-08-23T03:22:30.637Z,7.38
2022-08-23T03:24:57.502Z,6.78
2022-08-23T03:27:24.133Z,6.00
2022-08-23T03:29:50.870Z,5.70
2022-08-23T03:32:17.992Z,5.75
2022-08-23T03:34:45.551Z,5.90
2022-08-23T03:37:12.300Z,8.50
2022-08-23T03:39:38.997Z,6.22
2022-08-23T03:42:06.810Z,7.35
2022-08-23T03:44:33.717Z,5.97
2022-08-23T03:47:00.490Z,6.50
2022-08-23T03:49:27.249Z,5.85
2022-08-23T03:51:54.165Z,5.80
2022-08-23T03:54:22.763Z,5.85
2022-08-23T03:57:02.961Z,5.90
2022-08-23T03:59:32.728Z,6.50
2022-08-23T04:01:59.680Z,6.25
2022-08-23T04:04:27.812Z,5.50
2022-08-23T04:06:55.605Z,5.95
2022-08-23T04:09:22.541Z,6.30
2022-08-23T04:12:02.272Z,7.32
2022-08-23T04:14:28.874Z,7.72
2022-08-23T04:16:55.743Z,7.07
2022-08-23T04:19:23.178Z,7.43
2022-08-23T04:21:52.920Z,7.93
2022-08-23T04:24:20.355Z,8.15
2022-08-23T04:26:49.094Z,7.35
2022-08-23T04:29:33.582Z,5.80
2022-08-23T04:32:07.810Z,7.05
2022-08-23T04:34:45.661Z,6.47
2022-08-23T04:37:18.536Z,7.65
2022-08-23T04:40:04.368Z,7.05
2022-08-23T04:42:31.085Z,5.97
2022-08-23T04:44:57.672Z,7.63
2022-08-23T04:47:24.257Z,5.70
2022-08-23T04:49:50.863Z,5.85
2022-08-23T04:52:19.528Z,5.93
2022-08-23T04:54:46.817Z,5.90
2022-08-23T04:57:15.333Z,6.30
2022-08-23T04:59:42.843Z,6.60
2022-08-23T05:02:09.617Z,7.70
2022-08-23T05:04:36.442Z,6.15
2022-08-23T05:07:04.061Z,5.55
2022-08-23T05:09:30.938Z,6.03
2022-08-23T05:12:09.623Z,5.90
2022-08-23T05:14:36.569Z,6.70
2022-08-23T05:17:03.243Z,5.28
2022-08-23T05:19:30.719Z,5.95
2022-08-23T05:21:57.432Z,6.25
2022-08-23T05:24:24.189Z,7.22
2022-08-23T05:26:50.801Z,7.72
2022-08-23T05:29:17.493Z,7.97
2022-08-23T05:31:44.375Z,6.82
2022-08-23T05:34:14.189Z,5.80
2022-08-23T05:36:51.645Z,5.60
2022-08-23T05:39:32.734Z,5.90
2022-08-23T05:42:04.898Z,6.03
2022-08-23T05:44:36.094Z,5.70
2022-08-23T05:47:10.529Z,7.07
2022-08-23T05:49:39.586Z,6.90
2022-08-23T05:52:09.974Z,8.52
2022-08-23T05:54:36.591Z,6.93
2022-08-23T05:57:03.738Z,6.55
2022-08-23T05:59:30.529Z,6.50
2022-08-23T06:01:57.370Z,7.45
2022-08-23T06:04:24.093Z,7.53
2022-08-23T06:06:50.749Z,6.05
2022-08-23T06:09:19.375Z,6.32
2022-08-23T06:11:51.217Z,6.35
2022-08-23T06:14:18.169Z,5.78
2022-08-23T06:16:51.577Z,4.65
2022-08-23T06:19:20.819Z,5.85
2022-08-23T06:21:48.221Z,7.00
2022-08-23T06:24:14.954Z,6.00
2022-08-23T06:26:45.289Z,5.60
2022-08-23T06:29:19.791Z,5.43
2022-08-23T06:31:50.572Z,5.55
2022-08-23T06:34:17.580Z,5.10
2022-08-23T06:36:46.272Z,5.20
2022-08-23T06:39:15.094Z,4.93
2022-08-23T06:41:41.802Z,5.35
2022-08-23T06:44:09.109Z,4.78
2022-08-23T06:46:38.449Z,5.75
2022-08-23T06:49:07.367Z,5.40
2022-08-23T06:51:41.921Z,5.57
2022-08-23T06:54:14.199Z,5.38
2022-08-23T06:56:43.919Z,4.88
2022-08-23T06:59:12.114Z,5.50
2022-08-23T07:02:06.028Z,6.10
2022-08-23T07:04:38.130Z,5.22
2022-08-23T07:07:11.146Z,6.28
2022-08-23T07:09:40.267Z,5.47
2022-08-23T07:12:25.543Z,5.80
2022-08-23T07:14:58.120Z,8.73
2022-08-23T07:17:25.311Z,5.40
2022-08-23T07:19:52.217Z,4.85
2022-08-23T07:22:20.515Z,6.38
2022-08-23T07:24:47.114Z,8.18
2022-08-23T07:27:13.732Z,5.20
2022-08-23T07:29:41.018Z,4.90
2022-08-23T07:32:09.407Z,4.10
2022-08-23T07:34:36.163Z,4.28
2022-08-23T07:37:11.226Z,4.20
2022-08-23T07:39:42.272Z,5.63
2022-08-23T07:42:23.174Z,4.25
2022-08-23T07:44:51.780Z,4.43
2022-08-23T07:47:19.776Z,4.38
2022-08-23T07:49:46.978Z,3.70
2022-08-23T07:52:13.636Z,3.60
2022-08-23T07:54:40.345Z,3.60
2022-08-23T07:57:10.076Z,4.17
2022-08-23T07:59:37.041Z,2.83
2022-08-23T08:02:03.885Z,2.83
2022-08-23T08:04:30.709Z,3.42
2022-08-23T08:07:17.690Z,3.80
2022-08-23T08:09:45.328Z,3.92
2022-08-23T08:12:19.609Z,3.45
2022-08-23T08:14:48.265Z,2.83
2022-08-23T08:17:18.069Z,3.50
2022-08-23T08:19:45.206Z,2.40
2022-08-23T08:22:13.018Z,2.78
2022-08-23T08:24:40.363Z,2.85
2022-08-23T08:27:08.229Z,3.40
2022-08-23T08:29:35.025Z,3.50
2022-08-23T08:32:01.847Z,2.92
2022-08-23T08:34:28.607Z,3.40
2022-08-23T08:36:58.986Z,2.33
2022-08-23T08:39:32.295Z,2.15
2022-08-23T08:42:31.677Z,2.33
2022-08-23T08:45:05.808Z,2.35
2022-08-23T08:47:50.309Z,2.00
2022-08-23T08:50:41.390Z,1.73
2022-08-23T08:53:31.510Z,2.58
2022-08-23T08:56:07.860Z,2.00
2022-08-23T08:59:06.814Z,2.22
2022-08-23T09:01:37.979Z,2.10
2022-08-23T09:04:06.925Z,1.80
2022-08-23T09:07:02.894Z,2.10
2022-08-23T09:09:53.991Z,3.88
2022-08-23T09:12:49.498Z,3.78
2022-08-23T09:15:33.007Z,2.60
2022-08-23T09:18:15.848Z,1.70
2022-08-23T09:20:47.054Z,1.70
2022-08-23T09:23:34.335Z,1.40
2022-08-23T09:26:32.461Z,2.00
2022-08-23T09:29:29.263Z,1.60
2022-08-23T09:32:02.283Z,1.50
2022-08-23T09:34:37.978Z,1.77
2022-08-23T09:37:13.685Z,1.55
2022-08-23T09:39:49.633Z,1.73
2022-08-23T09:42:39.597Z,1.48
2022-08-23T09:45:35.101Z,1.60
2022-08-23T09:48:02.685Z,0.90
2022-08-23T09:50:39.857Z,0.90
2022-08-23T09:53:12.092Z,1.05
2022-08-23T09:55:45.807Z,1.63
2022-08-23T09:58:36.874Z,1.30
2022-08-23T10:01:14.109Z,1.40
2022-08-23T10:03:42.668Z,1.00
2022-08-23T10:06:15.428Z,1.95
2022-08-23T10:09:02.252Z,0.82
2022-08-23T10:11:47.981Z,0.82
2022-08-23T10:14:24.303Z,1.75
2022-08-23T10:20:12.565Z,1.10
2022-08-23T10:22:59.080Z,1.90
2022-08-23T10:25:48.680Z,2.03
2022-08-23T10:29:13.554Z,1.60
2022-08-23T10:32:06.301Z,1.40
2022-08-23T10:34:51.710Z,2.53
2022-08-23T10:37:46.868Z,1.55
2022-08-23T10:40:25.890Z,1.30
2022-08-23T10:43:15.535Z,1.65
2022-08-23T10:45:46.814Z,2.55
2022-08-23T10:48:31.792Z,1.52
2022-08-23T10:51:09.907Z,1.67
2022-08-23T10:53:56.996Z,1.42
2022-08-23T10:56:23.975Z,1.45
2022-08-23T10:59:00.970Z,1.50
2022-08-23T11:01:47.494Z,3.17
2022-08-23T11:04:36.583Z,1.33
2022-08-23T11:07:20.246Z,1.50
2022-08-23T11:09:55.007Z,2.55
2022-08-23T11:12:34.621Z,1.58
2022-08-23T11:15:07.483Z,2.45
2022-08-23T11:17:49.074Z,1.60
2022-08-23T11:20:50.797Z,1.73
2022-08-23T11:23:36.907Z,1.63
2022-08-23T11:26:36.277Z,1.60
2022-08-23T11:29:05.831Z,1.40
2022-08-23T11:32:13.952Z,2.45
2022-08-23T11:34:51.937Z,1.55
2022-08-23T11:37:24.273Z,1.40
2022-08-23T11:40:00.330Z,1.30
2022-08-23T11:42:50.170Z,1.60
2022-08-23T11:45:27.211Z,1.40
2022-08-23T11:48:18.475Z,1.50
2022-08-23T11:50:55.686Z,2.22
2022-08-23T11:54:06.604Z,2.08
2022-08-23T11:56:58.658Z,2.25
2022-08-23T12:00:06.277Z,2.13
2022-08-23T12:02:42.320Z,1.77
2022-08-23T12:05:32.471Z,1.30
2022-08-23T12:08:02.618Z,2.08
2022-08-23T12:10:41.826Z,1.73
2022-08-23T12:13:20.630Z,1.90
2022-08-23T12:16:19.755Z,1.40
2022-08-23T12:18:49.392Z,1.40
2022-08-23T12:21:31.108Z,1.87
2022-08-23T12:24:16.916Z,1.30
2022-08-23T12:26:49.626Z,2.63
2022-08-23T12:29:34.139Z,1.50
2022-08-23T12:32:10.348Z,2.45
2022-08-23T12:35:06.496Z,1.98
2022-08-23T12:37:49.937Z,1.20
2022-08-23T12:40:32.539Z,1.40
2022-08-23T12:43:17.449Z,1.40
2022-08-23T12:45:55.802Z,1.02
2022-08-23T12:48:28.423Z,1.10
2022-08-23T12:51:07.114Z,0.98
2022-08-23T12:53:45.169Z,1.25
2022-08-23T12:56:31.862Z,1.08
2022-08-23T12:59:05.372Z,1.55
2022-08-23T13:01:37.618Z,1.95
2022-08-23T13:04:11.596Z,1.08
2022-08-23T13:06:57.647Z,1.17
2022-08-23T13:09:38.696Z,1.88
2022-08-23T13:12:10.215Z,2.50
2022-08-23T13:14:39.623Z,1.10
2022-08-23T13:17:17.419Z,1.70
2022-08-23T13:19:46.639Z,1.73
2022-08-23T13:22:24.042Z,2.08
2022-08-23T13:25:24.577Z,1.08
2022-08-23T13:27:46.057Z,1.08
2022-08-23T13:30:19.745Z,0.85
2022-08-23T13:33:08.372Z,0.80
2022-08-23T13:35:40.533Z,1.00
2022-08-23T13:38:17.015Z,1.10
2022-08-23T13:41:10.614Z,0.60
2022-08-23T13:46:23.176Z,1.25
2022-08-23T13:49:02.295Z,0.82
2022-08-23T13:51:38.820Z,0.80
2022-08-23T13:54:15.213Z,1.20
2022-08-23T13:57:07.860Z,1.10
2022-08-23T13:59:51.969Z,0.80
2022-08-23T14:02:21.551Z,0.95
2022-08-23T14:07:15.616Z,0.82
2022-08-23T14:09:43.418Z,0.63
2022-08-23T14:12:18.105Z,0.80
2022-08-23T14:14:46.126Z,0.90
2022-08-23T14:17:16.454Z,0.80
2022-08-23T14:22:34.701Z,0.73
2022-08-23T14:25:01.450Z,1.55
2022-08-23T14:27:28.205Z,1.20
2022-08-23T14:29:54.880Z,1.23
2022-08-23T14:32:21.869Z,1.10
2022-08-23T14:34:48.519Z,0.93
2022-08-23T14:38:18.109Z,1.45
2022-08-23T14:40:02.276Z,1.63
2022-08-23T14:42:28.974Z,1.52
2022-08-23T14:44:55.903Z,1.52
2022-08-23T14:47:22.647Z,1.23
2022-08-23T14:49:53.302Z,1.20
2022-08-23T14:52:21.638Z,2.55
2022-08-23T14:54:49.612Z,1.15
2022-08-23T14:57:16.889Z,1.95
2022-08-23T14:59:43.642Z,1.30
2022-08-23T15:02:16.196Z,2.38
2022-08-23T15:04:42.794Z,2.25
2022-08-23T15:07:18.713Z,1.65
2022-08-23T15:09:54.452Z,1.55
2022-08-23T15:15:27.852Z,1.58
2022-08-23T15:18:00.513Z,1.80
2022-08-23T15:20:34.880Z,1.73
2022-08-23T15:23:02.201Z,1.45
2022-08-23T15:25:33.296Z,1.35
2022-08-23T15:28:02.223Z,1.77
2022-08-23T15:30:30.292Z,1.40
2022-08-23T15:33:00.730Z,1.92
2022-08-23T15:35:29.526Z,1.10
2022-08-23T15:37:57.414Z,2.80
2022-08-23T15:40:26.070Z,1.40
2022-08-23T15:42:53.381Z,1.27
2022-08-23T15:45:20.142Z,1.52
2022-08-23T15:47:55.102Z,1.10
2022-08-23T15:50:27.023Z,1.58
2022-08-23T15:52:55.202Z,0.98
2022-08-23T15:55:21.964Z,1.25
2022-08-23T15:57:53.581Z,0.88
2022-08-23T16:00:27.810Z,1.10
2022-08-23T16:03:18.668Z,1.30
2022-08-23T16:05:45.965Z,1.40
2022-08-23T16:08:30.738Z,1.10
2022-08-23T16:10:58.466Z,1.25
2022-08-23T16:13:26.968Z,1.17
2022-08-23T16:15:54.480Z,1.48
2022-08-23T16:18:21.244Z,1.15
2022-08-23T16:20:48.006Z,1.10
2022-08-23T16:23:14.669Z,1.17
2022-08-23T16:25:42.561Z,1.10
2022-08-23T16:28:09.583Z,1.23
2022-08-23T16:30:36.927Z,3.20
2022-08-23T16:33:04.264Z,1.10
2022-08-23T16:35:30.979Z,1.30
2022-08-23T16:37:57.716Z,1.20
2022-08-23T16:40:24.596Z,1.13
2022-08-23T16:42:52.713Z,0.98
2022-08-23T16:45:25.822Z,1.10
2022-08-23T16:47:53.617Z,1.30
2022-08-23T16:50:20.448Z,1.38
2022-08-23T16:52:47.073Z,1.77
2022-08-23T16:55:14.494Z,0.90
2022-08-23T16:57:41.506Z,0.90
2022-08-23T17:00:13.154Z,0.95
2022-08-23T17:02:40.903Z,1.15
2022-08-23T17:05:12.558Z,2.05
2022-08-23T17:07:42.107Z,0.80
2022-08-23T17:10:11.865Z,1.55
2022-08-23T17:12:57.973Z,0.73
2022-08-23T17:15:34.343Z,1.45
2022-08-23T17:21:26.593Z,0.90
2022-08-23T17:23:53.352Z,2.05
2022-08-23T17:26:20.553Z,1.10
2022-08-23T17:28:47.246Z,0.90
2022-08-23T17:31:14.683Z,1.00
2022-08-23T17:33:41.953Z,0.90
2022-08-23T17:36:40.306Z,1.10
2022-08-23T17:39:12.976Z,1.17
2022-08-23T17:41:44.984Z,1.27
2022-08-23T17:44:12.881Z,1.27
2022-08-23T17:46:43.024Z,1.10
2022-08-23T17:49:11.713Z,1.10
2022-08-23T17:51:41.124Z,0.95
2022-08-23T17:54:11.227Z,0.90
2022-08-23T17:56:40.488Z,1.42
2022-08-23T17:59:09.083Z,1.10
2022-08-23T18:01:37.629Z,1.10
2022-08-23T18:04:07.940Z,1.08
2022-08-23T18:06:36.456Z,1.25
2022-08-23T18:09:06.587Z,1.10
2022-08-23T18:11:45.260Z,1.48
2022-08-23T18:14:12.147Z,1.45
2022-08-23T18:16:39.552Z,0.95
2022-08-23T18:19:11.155Z,1.23
2022-08-23T18:21:41.263Z,1.35
2022-08-23T18:24:09.329Z,1.75
2022-08-23T18:26:55.957Z,1.35
2022-08-23T18:29:22.770Z,1.30
2022-08-23T18:31:49.943Z,1.75
2022-08-23T18:34:19.024Z,1.70
2022-08-23T18:36:45.797Z,1.60
2022-08-23T18:39:14.905Z,1.40
2022-08-23T18:41:42.756Z,1.88
2022-08-23T18:44:10.932Z,1.60
2022-08-23T18:46:41.774Z,1.50
2022-08-23T18:49:11.356Z,2.05
2022-08-23T18:51:40.511Z,1.90
2022-08-23T18:54:09.160Z,1.27
2022-08-23T18:56:36.194Z,2.17
2022-08-23T18:59:04.093Z,1.25
2022-08-23T19:01:36.161Z,1.23
2022-08-23T19:04:05.318Z,2.35
2022-08-23T19:06:32.230Z,1.13
2022-08-23T19:09:00.980Z,1.40
2022-08-23T19:11:46.346Z,1.40
2022-08-23T19:14:33.376Z,2.10
2022-08-23T19:17:19.239Z,1.50
2022-08-23T19:19:45.855Z,1.40
2022-08-23T19:22:12.713Z,1.83
2022-08-23T19:24:39.777Z,1.60
2022-08-23T19:27:07.230Z,1.92
2022-08-23T19:29:34.594Z,1.60
2022-08-23T19:32:02.718Z,1.77
2022-08-23T19:34:30.269Z,2.58
2022-08-23T19:37:01.317Z,2.17
2022-08-23T19:39:29.808Z,2.20
2022-08-23T19:41:56.779Z,1.75
2022-08-23T19:44:23.696Z,1.55
2022-08-23T19:46:50.575Z,1.90
2022-08-23T19:49:17.451Z,2.25
2022-08-23T19:51:44.849Z,1.80
2022-08-23T19:54:12.834Z,1.80
2022-08-23T19:56:50.157Z,1.65
2022-08-23T19:59:36.432Z,1.60
2022-08-23T20:02:03.496Z,1.67
2022-08-23T20:04:32.703Z,1.70
2022-08-23T20:07:01.249Z,2.75
2022-08-23T20:09:30.755Z,1.73
2022-08-23T20:12:17.360Z,2.20
2022-08-23T20:15:04.846Z,1.60
2022-08-23T20:17:34.494Z,1.70
2022-08-23T20:20:01.228Z,1.60
2022-08-23T20:22:47.493Z,2.83
2022-08-23T20:25:14.888Z,2.13
2022-08-23T20:27:43.472Z,2.55
2022-08-23T20:30:12.689Z,3.75
2022-08-23T20:32:39.642Z,1.88
2022-08-23T20:35:09.006Z,2.17
2022-08-23T20:37:36.253Z,1.70
2022-08-23T20:40:05.892Z,3.25
2022-08-23T20:42:32.806Z,3.05
2022-08-23T20:44:59.527Z,2.00
2022-08-23T20:47:26.393Z,2.50
2022-08-23T20:49:53.063Z,3.13
2022-08-23T20:52:19.765Z,1.85
2022-08-23T20:54:46.555Z,3.63
2022-08-23T20:57:13.499Z,4.30
2022-08-23T20:59:44.501Z,2.50
2022-08-23T21:02:12.742Z,3.58
2022-08-23T21:04:40.202Z,2.33
2022-08-23T21:07:08.211Z,2.38
2022-08-23T21:09:36.074Z,3.17
2022-08-23T21:12:18.683Z,2.35
2022-08-23T21:14:45.355Z,2.00
2022-08-23T21:17:12.196Z,2.13
2022-08-23T21:19:39.022Z,2.08
2022-08-23T21:22:05.743Z,2.00
2022-08-23T21:24:32.580Z,3.25
2022-08-23T21:26:59.284Z,1.70
2022-08-23T21:29:26.181Z,1.95
2022-08-23T21:31:52.946Z,1.98
2022-08-23T21:34:19.644Z,1.67
2022-08-23T21:36:46.561Z,2.35
2022-08-23T21:39:13.738Z,1.60
2022-08-23T21:41:44.773Z,1.73
2022-08-23T21:44:18.969Z,1.98
2022-08-23T21:46:48.052Z,2.13
2022-08-23T21:49:16.249Z,2.80
2022-08-23T21:51:45.249Z,2.38
2022-08-23T21:54:14.058Z,2.33
2022-08-23T21:56:41.816Z,2.00
2022-08-23T21:59:13.812Z,2.42
2022-08-23T22:01:42.622Z,3.67
2022-08-23T22:04:12.949Z,3.95
2022-08-23T22:06:41.651Z,5.35
2022-08-23T22:09:13.506Z,2.17
2022-08-23T22:11:44.014Z,2.38
2022-08-23T22:14:17.919Z,3.35
2022-08-23T22:16:44.627Z,2.97
2022-08-23T22:19:15.133Z,2.45
2022-08-23T22:21:43.811Z,2.90
2022-08-23T22:24:10.740Z,2.70
2022-08-23T22:26:40.039Z,2.40
2022-08-23T22:29:08.673Z,3.03
2022-08-23T22:31:37.134Z,2.45
2022-08-23T22:34:06.517Z,3.13
2022-08-23T22:36:33.943Z,2.50
2022-08-23T22:39:00.762Z,2.80
2022-08-23T22:41:30.196Z,3.22
2022-08-23T22:44:00.665Z,5.72
2022-08-23T22:46:30.392Z,3.03
2022-08-23T22:48:57.417Z,2.42
2022-08-23T22:51:31.373Z,2.30
2022-08-23T22:54:03.137Z,3.05
2022-08-23T22:56:40.240Z,3.60
2022-08-23T22:59:07.858Z,2.60
2022-08-23T23:01:39.625Z,3.42
2022-08-23T23:04:10.066Z,3.63
2022-08-23T23:09:07.918Z,3.10
2022-08-23T23:11:43.524Z,3.85
2022-08-23T23:14:11.643Z,3.28
2022-08-23T23:16:39.161Z,3.30
2022-08-23T23:19:24.854Z,2.50
2022-08-23T23:21:55.636Z,2.60
2022-08-23T23:26:57.194Z,2.90
2022-08-23T23:29:24.862Z,2.50
2022-08-23T23:31:51.544Z,2.47
2022-08-23T23:34:18.533Z,2.75
2022-08-23T23:36:45.944Z,2.88
2022-08-23T23:39:14.532Z,2.90
2022-08-23T23:41:42.408Z,2.80
2022-08-23T23:44:09.154Z,4.50
2022-08-23T23:46:35.906Z,3.05
2022-08-23T23:49:02.729Z,2.33
2022-08-23T23:51:31.275Z,2.35
2022-08-23T23:54:01.044Z,2.85
2022-08-23T23:56:29.969Z,2.73
2022-08-23T23:58:58.668Z,3.10
